createdAt,value
2023-01-25T00:00:43.349Z,13.37
2023-01-25T00:05:34.958Z,11.90
2023-01-25T00:10:26.542Z,12.93
2023-01-25T00:15:18.093Z,14.00
2023-01-25T00:20:11.599Z,10.37
2023-01-25T00:25:03.451Z,11.03
2023-01-25T00:29:55.003Z,11.07
2023-01-25T00:34:48.843Z,12.13
2023-01-25T00:39:40.843Z,10.63
2023-01-25T00:44:32.434Z,10.70
2023-01-25T00:49:26.929Z,10.53
2023-01-25T00:54:19.257Z,11.37
2023-01-25T00:59:12.277Z,12.00
2023-01-25T01:04:06.576Z,12.83
2023-01-25T01:08:58.231Z,11.20
2023-01-25T01:13:49.787Z,10.83
2023-01-25T01:18:44.231Z,10.77
2023-01-25T01:23:36.779Z,11.23
2023-01-25T01:28:30.589Z,11.13
2023-01-25T01:33:22.101Z,11.00
2023-01-25T01:38:13.807Z,11.50
2023-01-25T01:43:16.125Z,11.80
2023-01-25T01:48:29.316Z,12.77
2023-01-25T01:53:24.674Z,10.20
2023-01-25T01:58:16.588Z,10.73
2023-01-25T02:03:11.229Z,11.63
2023-01-25T02:08:04.004Z,11.73
2023-01-25T02:12:58.677Z,10.70
2023-01-25T02:17:51.611Z,11.47
2023-01-25T02:23:03.297Z,11.87
2023-01-25T02:27:59.948Z,12.30
2023-01-25T02:32:52.541Z,12.80
2023-01-25T02:37:45.244Z,11.53
2023-01-25T02:42:37.277Z,12.17
2023-01-25T02:47:29.839Z,11.13
2023-01-25T02:52:21.396Z,11.53
2023-01-25T02:57:13.557Z,11.33
2023-01-25T03:02:07.887Z,13.00
2023-01-25T03:07:01.558Z,11.00
2023-01-25T03:11:54.353Z,12.67
2023-01-25T03:16:47.922Z,11.07
2023-01-25T03:21:44.364Z,12.83
2023-01-25T03:26:58.858Z,14.20
2023-01-25T03:32:05.764Z,13.33
2023-01-25T03:36:57.486Z,12.43
2023-01-25T03:41:49.477Z,13.67
2023-01-25T03:46:42.635Z,12.53
2023-01-25T03:51:35.864Z,13.13
2023-01-25T03:56:28.219Z,11.77
2023-01-25T04:01:27.043Z,12.87
2023-01-25T04:06:19.187Z,10.67
2023-01-25T04:11:10.921Z,13.13
2023-01-25T04:16:11.750Z,11.37
2023-01-25T04:21:32.101Z,13.20
2023-01-25T04:26:23.999Z,12.67
2023-01-25T04:31:20.373Z,13.20
2023-01-25T04:36:14.936Z,12.57
2023-01-25T04:41:07.994Z,13.67
2023-01-25T04:46:02.666Z,12.47
2023-01-25T04:50:56.788Z,13.50
2023-01-25T04:55:49.672Z,12.07
2023-01-25T05:00:41.606Z,13.77
2023-01-25T05:05:33.683Z,15.50
2023-01-25T05:10:29.577Z,12.90
2023-01-25T05:15:50.663Z,13.77
2023-01-25T05:20:42.518Z,11.83
2023-01-25T05:25:54.283Z,13.83
2023-01-25T05:30:55.593Z,14.97
2023-01-25T05:35:50.613Z,12.97
2023-01-25T05:40:42.809Z,13.30
2023-01-25T05:45:34.451Z,14.50
2023-01-25T05:50:27.875Z,14.27
2023-01-25T05:55:25.441Z,14.20
2023-01-25T06:00:19.584Z,15.10
2023-01-25T06:05:11.527Z,13.70
2023-01-25T06:10:04.814Z,14.93
2023-01-25T06:14:57.031Z,14.40
2023-01-25T06:19:48.745Z,14.27
2023-01-25T06:24:54.794Z,13.43
2023-01-25T06:29:46.491Z,13.40
2023-01-25T06:34:38.165Z,15.30
2023-01-25T06:39:33.825Z,15.97
2023-01-25T06:44:25.447Z,17.87
2023-01-25T06:49:16.998Z,15.93
2023-01-25T06:54:08.544Z,16.80
2023-01-25T06:59:00.173Z,15.63
2023-01-25T07:03:54.193Z,15.00
2023-01-25T07:08:46.163Z,15.83
2023-01-25T07:13:38.213Z,16.23
2023-01-25T07:18:32.397Z,14.77
2023-01-25T07:23:24.641Z,13.40
2023-01-25T07:28:17.507Z,15.67
2023-01-25T07:33:11.598Z,14.33
2023-01-25T07:38:04.244Z,16.30
2023-01-25T07:42:56.066Z,16.53
2023-01-25T07:47:48.987Z,16.37
2023-01-25T07:52:41.714Z,41.10
2023-01-25T07:57:33.291Z,16.43
2023-01-25T08:02:24.898Z,17.90
2023-01-25T08:07:16.571Z,16.70
2023-01-25T08:12:09.714Z,16.93
2023-01-25T08:17:02.058Z,15.87
2023-01-25T08:21:53.686Z,19.03
2023-01-25T08:26:45.247Z,15.97
2023-01-25T08:31:39.535Z,16.27
2023-01-25T08:36:31.220Z,17.23
2023-01-25T08:41:23.471Z,17.23
2023-01-25T08:46:16.692Z,16.53
2023-01-25T08:51:11.420Z,18.73
2023-01-25T08:56:08.150Z,17.63
2023-01-25T09:01:05.615Z,18.47
2023-01-25T09:05:57.712Z,20.63
2023-01-25T09:10:49.357Z,17.73
2023-01-25T09:15:41.018Z,18.73
2023-01-25T09:20:34.490Z,18.20
2023-01-25T09:25:26.498Z,17.63
2023-01-25T09:30:19.282Z,16.67
2023-01-25T09:35:17.227Z,16.47
2023-01-25T09:40:21.923Z,18.27
2023-01-25T09:45:32.637Z,18.77
2023-01-25T09:50:27.263Z,21.03
2023-01-25T09:55:22.605Z,21.77
2023-01-25T10:00:26.807Z,20.00
2023-01-25T10:05:25.937Z,17.93
2023-01-25T10:10:30.049Z,21.30
2023-01-25T10:15:28.823Z,20.67
2023-01-25T10:20:31.824Z,18.93
2023-01-25T10:25:33.924Z,22.73
2023-01-25T10:30:31.294Z,18.73
2023-01-25T10:35:36.092Z,20.73
2023-01-25T10:40:35.194Z,20.83
2023-01-25T10:45:26.762Z,19.90
2023-01-25T10:50:54.528Z,20.33
2023-01-25T10:56:05.545Z,19.90
2023-01-25T11:00:58.038Z,21.37
2023-01-25T11:05:57.135Z,19.83
2023-01-25T11:10:49.556Z,22.63
2023-01-25T11:15:44.653Z,21.03
2023-01-25T11:20:36.387Z,24.03
2023-01-25T11:25:34.104Z,21.63
2023-01-25T11:30:25.797Z,24.40
2023-01-25T11:35:25.715Z,22.23
2023-01-25T11:40:22.220Z,24.13
2023-01-25T11:45:24.175Z,19.83
2023-01-25T11:50:36.389Z,29.93
2023-01-25T11:55:56.382Z,23.03
2023-01-25T12:01:16.143Z,29.73
2023-01-25T12:06:16.687Z,23.77
2023-01-25T12:11:23.533Z,24.00
2023-01-25T12:16:38.290Z,22.23
2023-01-25T12:22:00.941Z,23.97
2023-01-25T12:27:05.926Z,22.77
2023-01-25T12:32:33.146Z,22.07
2023-01-25T12:37:32.704Z,22.23
2023-01-25T12:42:57.539Z,24.33
2023-01-25T12:47:58.038Z,23.43
2023-01-25T12:52:55.893Z,24.77
2023-01-25T12:57:56.717Z,26.17
2023-01-25T13:03:00.150Z,25.37
2023-01-25T13:08:14.056Z,24.67
2023-01-25T13:13:28.835Z,24.60
2023-01-25T13:18:31.025Z,22.13
2023-01-25T13:23:43.793Z,22.37
2023-01-25T13:28:47.444Z,26.70
2023-01-25T13:33:39.116Z,25.83
2023-01-25T13:38:33.230Z,24.50
2023-01-25T13:43:24.943Z,23.03
2023-01-25T13:48:23.329Z,24.60
2023-01-25T13:53:14.975Z,25.90
2023-01-25T13:58:33.828Z,27.00
2023-01-25T14:03:32.203Z,26.37
2023-01-25T14:08:26.388Z,29.37
2023-01-25T14:13:18.650Z,24.63
2023-01-25T14:18:19.217Z,27.07
2023-01-25T14:23:22.059Z,28.87
2023-01-25T14:28:15.133Z,28.63
2023-01-25T14:33:24.583Z,27.83
2023-01-25T14:38:25.424Z,31.17
2023-01-25T14:43:18.147Z,27.03
2023-01-25T14:48:40.470Z,31.43
2023-01-25T14:53:32.205Z,35.53
2023-01-25T14:58:25.355Z,32.03
2023-01-25T15:03:17.362Z,31.03
2023-01-25T15:08:08.845Z,33.57
2023-01-25T15:13:13.763Z,33.67
2023-01-25T15:18:06.485Z,31.90
2023-01-25T15:23:14.240Z,34.00
2023-01-25T15:28:06.470Z,32.97
2023-01-25T15:32:59.943Z,31.73
2023-01-25T15:37:51.527Z,36.17
2023-01-25T15:42:43.190Z,41.67
2023-01-25T15:47:36.748Z,39.30
2023-01-25T15:52:28.473Z,36.93
2023-01-25T15:57:30.085Z,34.47
2023-01-25T16:02:21.771Z,35.80
2023-01-25T16:07:22.945Z,31.80
2023-01-25T16:12:15.910Z,40.77
2023-01-25T16:17:18.331Z,37.47
2023-01-25T16:22:10.468Z,34.37
2023-01-25T16:27:02.128Z,35.07
2023-01-25T16:31:55.425Z,35.03
2023-01-25T16:36:50.664Z,33.10
2023-01-25T16:41:42.342Z,37.30
2023-01-25T16:46:33.998Z,36.80
2023-01-25T16:51:27.959Z,39.03
2023-01-25T16:56:21.783Z,38.90
2023-01-25T17:01:15.009Z,35.80
2023-01-25T17:06:07.957Z,39.83
2023-01-25T17:11:04.970Z,38.80
2023-01-25T17:15:57.068Z,38.83
2023-01-25T17:20:57.625Z,38.23
2023-01-25T17:25:49.227Z,39.67
2023-01-25T17:30:41.237Z,40.80
2023-01-25T17:35:35.825Z,38.13
2023-01-25T17:40:27.524Z,35.37
2023-01-25T17:45:19.275Z,33.30
2023-01-25T17:50:11.431Z,33.20
2023-01-25T17:55:03.749Z,35.87
2023-01-25T17:59:55.491Z,36.10
2023-01-25T18:04:47.027Z,36.47
2023-01-25T18:09:38.600Z,39.43
2023-01-25T18:14:30.294Z,33.23
2023-01-25T18:19:22.520Z,32.47
2023-01-25T18:24:34.105Z,39.13
2023-01-25T18:29:51.117Z,38.00
2023-01-25T18:34:42.733Z,33.07
2023-01-25T18:39:34.552Z,34.00
2023-01-25T18:44:26.125Z,34.67
2023-01-25T18:49:17.710Z,28.23
2023-01-25T18:54:09.229Z,26.67
2023-01-25T18:59:00.951Z,23.83
2023-01-25T19:03:52.843Z,40.33
2023-01-25T19:08:49.669Z,20.97
2023-01-25T19:13:42.453Z,25.47
2023-01-25T19:18:40.876Z,20.67
2023-01-25T19:23:34.626Z,19.83
2023-01-25T19:28:26.907Z,16.00
2023-01-25T19:33:20.852Z,18.67
2023-01-25T19:38:13.539Z,18.20
2023-01-25T19:43:05.375Z,17.03
2023-01-25T19:47:56.935Z,17.50
2023-01-25T19:52:48.491Z,16.20
2023-01-25T19:57:40.328Z,19.77
2023-01-25T20:02:32.341Z,20.97
2023-01-25T20:07:25.744Z,18.07
2023-01-25T20:12:17.265Z,21.37
2023-01-25T20:17:09.190Z,15.77
2023-01-25T20:22:01.391Z,16.30
2023-01-25T20:26:53.041Z,16.90
2023-01-25T20:31:45.876Z,17.80
2023-01-25T20:36:38.289Z,17.73
2023-01-25T20:41:30.221Z,19.80
2023-01-25T20:46:22.179Z,17.20
2023-01-25T20:51:16.876Z,18.70
2023-01-25T20:56:09.689Z,17.53
2023-01-25T21:01:01.482Z,20.50
2023-01-25T21:05:56.585Z,19.13
2023-01-25T21:10:54.219Z,15.63
2023-01-25T21:15:59.396Z,19.10
2023-01-25T21:20:50.995Z,20.20
2023-01-25T21:25:42.830Z,18.97
2023-01-25T21:30:34.446Z,17.90
2023-01-25T21:35:26.423Z,20.43
2023-01-25T21:40:18.079Z,23.73
2023-01-25T21:45:29.232Z,23.60
2023-01-25T21:50:39.400Z,25.70
2023-01-25T21:55:30.930Z,21.10
2023-01-25T22:00:22.544Z,26.30
2023-01-25T22:05:14.145Z,29.60
2023-01-25T22:10:05.961Z,29.30
2023-01-25T22:14:57.627Z,31.73
2023-01-25T22:19:49.337Z,35.30
2023-01-25T22:24:40.960Z,30.97
2023-01-25T22:29:34.330Z,33.00
2023-01-25T22:34:26.645Z,34.57
2023-01-25T22:39:18.358Z,33.23
2023-01-25T22:44:10.169Z,33.43
2023-01-25T22:49:02.582Z,32.80
2023-01-25T22:53:55.662Z,31.47
2023-01-25T22:58:48.403Z,30.43
2023-01-25T23:03:40.390Z,30.90
2023-01-25T23:08:34.398Z,33.50
2023-01-25T23:13:26.490Z,35.10
2023-01-25T23:18:36.877Z,35.27
2023-01-25T23:23:28.912Z,38.57
2023-01-25T23:28:20.496Z,45.73
2023-01-25T23:33:12.162Z,34.20
2023-01-25T23:38:15.183Z,37.83
2023-01-25T23:43:06.870Z,37.70
2023-01-25T23:47:58.557Z,37.53
2023-01-25T23:52:50.100Z,38.83
2023-01-25T23:57:41.808Z,37.77
